sensor_id;sensor_type;location;lat;lon;timestamp;P1;durP1;ratioP1;P2;durP2;ratioP2
15637;SDS011;26604;53.596;10.042;2023-12-20T00:02:22;15.95;;;1.30;;
15637;SDS011;26604;53.596;10.042;2023-12-20T00:04:49;9.00;;;1.73;;
15637;SDS011;26604;53.596;10.042;2023-12-20T00:07:16;17.02;;;2.33;;
15637;SDS011;26604;53.596;10.042;2023-12-20T00:09:42;17.92;;;2.25;;
15637;SDS011;26604;53.596;10.042;2023-12-20T00:12:11;12.50;;;1.90;;
15637;SDS011;26604;53.596;10.042;2023-12-20T00:14:37;16.77;;;2.00;;
15637;SDS011;26604;53.596;10.042;2023-12-20T00:17:04;17.73;;;2.20;;
15637;SDS011;26604;53.596;10.042;2023-12-20T00:19:31;16.55;;;2.00;;
15637;SDS011;26604;53.596;10.042;2023-12-20T00:21:58;12.13;;;1.88;;
15637;SDS011;26604;53.596;10.042;2023-12-20T00:24:25;12.55;;;2.33;;
15637;SDS011;26604;53.596;10.042;2023-12-20T00:26:52;11.48;;;1.98;;
15637;SDS011;26604;53.596;10.042;2023-12-20T00:29:20;21.05;;;1.95;;
15637;SDS011;26604;53.596;10.042;2023-12-20T00:31:47;23.52;;;2.55;;
15637;SDS011;26604;53.596;10.042;2023-12-20T00:34:14;12.55;;;1.85;;
15637;SDS011;26604;53.596;10.042;2023-12-20T00:36:41;9.50;;;1.77;;
15637;SDS011;26604;53.596;10.042;2023-12-20T00:39:08;18.77;;;2.30;;
15637;SDS011;26604;53.596;10.042;2023-12-20T00:41:34;14.30;;;2.05;;
15637;SDS011;26604;53.596;10.042;2023-12-20T00:44:02;11.48;;;1.63;;
15637;SDS011;26604;53.596;10.042;2023-12-20T00:46:30;19.75;;;2.53;;
15637;SDS011;26604;53.596;10.042;2023-12-20T00:48:57;12.65;;;2.28;;
15637;SDS011;26604;53.596;10.042;2023-12-20T00:51:24;14.95;;;1.98;;
15637;SDS011;26604;53.596;10.042;2023-12-20T00:53:51;12.75;;;2.00;;
15637;SDS011;26604;53.596;10.042;2023-12-20T00:56:19;13.50;;;2.40;;
15637;SDS011;26604;53.596;10.042;2023-12-20T00:58:46;14.68;;;2.20;;
15637;SDS011;26604;53.596;10.042;2023-12-20T01:01:13;10.80;;;2.13;;
15637;SDS011;26604;53.596;10.042;2023-12-20T01:03:42;10.43;;;2.00;;
15637;SDS011;26604;53.596;10.042;2023-12-20T01:06:09;18.65;;;2.63;;
15637;SDS011;26604;53.596;10.042;2023-12-20T01:08:37;12.38;;;1.60;;
15637;SDS011;26604;53.596;10.042;2023-12-20T01:11:03;15.95;;;1.92;;
15637;SDS011;26604;53.596;10.042;2023-12-20T01:13:30;17.13;;;1.92;;
15637;SDS011;26604;53.596;10.042;2023-12-20T01:15:57;12.63;;;1.83;;
15637;SDS011;26604;53.596;10.042;2023-12-20T01:18:24;14.25;;;1.85;;
15637;SDS011;26604;53.596;10.042;2023-12-20T01:20:52;12.90;;;1.90;;
15637;SDS011;26604;53.596;10.042;2023-12-20T01:23:19;14.38;;;2.60;;
15637;SDS011;26604;53.596;10.042;2023-12-20T01:25:46;10.27;;;2.05;;
15637;SDS011;26604;53.596;10.042;2023-12-20T01:28:13;10.02;;;1.55;;
15637;SDS011;26604;53.596;10.042;2023-12-20T01:30:39;11.23;;;1.60;;
15637;SDS011;26604;53.596;10.042;2023-12-20T01:33:06;11.60;;;1.75;;
15637;SDS011;26604;53.596;10.042;2023-12-20T01:35:33;15.55;;;2.22;;
15637;SDS011;26604;53.596;10.042;2023-12-20T01:38:01;15.90;;;2.13;;
15637;SDS011;26604;53.596;10.042;2023-12-20T01:40:28;16.55;;;2.25;;
15637;SDS011;26604;53.596;10.042;2023-12-20T01:42:58;7.90;;;1.40;;
15637;SDS011;26604;53.596;10.042;2023-12-20T01:45:26;13.23;;;2.35;;
15637;SDS011;26604;53.596;10.042;2023-12-20T01:47:53;10.10;;;1.90;;
15637;SDS011;26604;53.596;10.042;2023-12-20T01:50:20;25.42;;;2.10;;
15637;SDS011;26604;53.596;10.042;2023-12-20T01:52:48;16.00;;;2.10;;
15637;SDS011;26604;53.596;10.042;2023-12-20T01:55:18;14.88;;;1.88;;
15637;SDS011;26604;53.596;10.042;2023-12-20T01:57:46;10.82;;;1.75;;
15637;SDS011;26604;53.596;10.042;2023-12-20T02:00:13;16.70;;;2.00;;
15637;SDS011;26604;53.596;10.042;2023-12-20T02:02:41;11.35;;;1.90;;
15637;SDS011;26604;53.596;10.042;2023-12-20T02:05:09;16.20;;;1.70;;
15637;SDS011;26604;53.596;10.042;2023-12-20T02:07:37;16.95;;;2.10;;
15637;SDS011;26604;53.596;10.042;2023-12-20T02:10:04;11.85;;;1.80;;
15637;SDS011;26604;53.596;10.042;2023-12-20T02:12:32;9.82;;;1.50;;
15637;SDS011;26604;53.596;10.042;2023-12-20T02:14:59;13.55;;;1.60;;
15637;SDS011;26604;53.596;10.042;2023-12-20T02:17:26;11.98;;;2.58;;
15637;SDS011;26604;53.596;10.042;2023-12-20T02:19:54;12.73;;;1.65;;
15637;SDS011;26604;53.596;10.042;2023-12-20T02:22:22;17.88;;;1.90;;
15637;SDS011;26604;53.596;10.042;2023-12-20T02:24:49;11.57;;;1.98;;
15637;SDS011;26604;53.596;10.042;2023-12-20T02:27:15;11.00;;;1.65;;
15637;SDS011;26604;53.596;10.042;2023-12-20T02:29:45;11.65;;;1.92;;
15637;SDS011;26604;53.596;10.042;2023-12-20T02:32:13;10.15;;;2.05;;
15637;SDS011;26604;53.596;10.042;2023-12-20T02:34:40;10.55;;;1.77;;
15637;SDS011;26604;53.596;10.042;2023-12-20T02:37:07;13.27;;;2.17;;
15637;SDS011;26604;53.596;10.042;2023-12-20T02:39:35;13.93;;;1.60;;
15637;SDS011;26604;53.596;10.042;2023-12-20T02:42:02;13.00;;;2.30;;
15637;SDS011;26604;53.596;10.042;2023-12-20T02:44:29;18.67;;;1.88;;
15637;SDS011;26604;53.596;10.042;2023-12-20T02:46:56;12.43;;;1.60;;
15637;SDS011;26604;53.596;10.042;2023-12-20T02:49:23;13.63;;;2.47;;
15637;SDS011;26604;53.596;10.042;2023-12-20T02:51:50;8.27;;;1.60;;
15637;SDS011;26604;53.596;10.042;2023-12-20T02:54:17;13.80;;;1.88;;
15637;SDS011;26604;53.596;10.042;2023-12-20T02:56:45;11.95;;;1.88;;
15637;SDS011;26604;53.596;10.042;2023-12-20T02:59:12;11.73;;;2.15;;
15637;SDS011;26604;53.596;10.042;2023-12-20T03:01:41;10.73;;;1.45;;
15637;SDS011;26604;53.596;10.042;2023-12-20T03:04:08;12.70;;;1.70;;
15637;SDS011;26604;53.596;10.042;2023-12-20T03:06:35;17.05;;;1.98;;
15637;SDS011;26604;53.596;10.042;2023-12-20T03:09:02;9.15;;;1.88;;
15637;SDS011;26604;53.596;10.042;2023-12-20T03:11:29;11.52;;;1.80;;
15637;SDS011;26604;53.596;10.042;2023-12-20T03:13:57;14.10;;;1.83;;
15637;SDS011;26604;53.596;10.042;2023-12-20T03:16:24;8.30;;;2.25;;
15637;SDS011;26604;53.596;10.042;2023-12-20T03:18:51;14.60;;;1.95;;
15637;SDS011;26604;53.596;10.042;2023-12-20T03:21:18;18.30;;;2.00;;
15637;SDS011;26604;53.596;10.042;2023-12-20T03:23:45;11.82;;;1.70;;
15637;SDS011;26604;53.596;10.042;2023-12-20T03:26:12;14.68;;;1.48;;
15637;SDS011;26604;53.596;10.042;2023-12-20T03:28:39;10.45;;;1.60;;
15637;SDS011;26604;53.596;10.042;2023-12-20T03:31:07;11.93;;;2.17;;
15637;SDS011;26604;53.596;10.042;2023-12-20T03:33:36;9.73;;;1.85;;
15637;SDS011;26604;53.596;10.042;2023-12-20T03:36:02;13.75;;;1.70;;
15637;SDS011;26604;53.596;10.042;2023-12-20T03:38:29;14.30;;;2.08;;
15637;SDS011;26604;53.596;10.042;2023-12-20T03:40:56;10.52;;;2.20;;
15637;SDS011;26604;53.596;10.042;2023-12-20T03:43:23;12.50;;;1.63;;
15637;SDS011;26604;53.596;10.042;2023-12-20T03:45:50;10.23;;;1.50;;
15637;SDS011;26604;53.596;10.042;2023-12-20T03:48:18;10.27;;;1.70;;
15637;SDS011;26604;53.596;10.042;2023-12-20T03:50:45;10.10;;;1.80;;
15637;SDS011;26604;53.596;10.042;2023-12-20T03:53:12;13.13;;;1.88;;
15637;SDS011;26604;53.596;10.042;2023-12-20T03:55:39;7.20;;;1.30;;
15637;SDS011;26604;53.596;10.042;2023-12-20T03:58:05;11.52;;;1.33;;
15637;SDS011;26604;53.596;10.042;2023-12-20T04:00:32;7.90;;;1.73;;
15637;SDS011;26604;53.596;10.042;2023-12-20T04:02:59;9.23;;;1.67;;
15637;SDS011;26604;53.596;10.042;2023-12-20T04:05:27;9.80;;;1.42;;
15637;SDS011;26604;53.596;10.042;2023-12-20T04:07:54;13.52;;;1.80;;
15637;SDS011;26604;53.596;10.042;2023-12-20T04:10:21;8.05;;;1.73;;
15637;SDS011;26604;53.596;10.042;2023-12-20T04:12:48;8.85;;;1.77;;
15637;SDS011;26604;53.596;10.042;2023-12-20T04:15:15;7.90;;;1.60;;
15637;SDS011;26604;53.596;10.042;2023-12-20T04:17:41;16.15;;;2.42;;
15637;SDS011;26604;53.596;10.042;2023-12-20T04:20:08;8.90;;;1.70;;
15637;SDS011;26604;53.596;10.042;2023-12-20T04:22:37;10.18;;;1.70;;
15637;SDS011;26604;53.596;10.042;2023-12-20T04:25:04;8.98;;;1.98;;
15637;SDS011;26604;53.596;10.042;2023-12-20T04:27:31;11.50;;;1.88;;
15637;SDS011;26604;53.596;10.042;2023-12-20T04:29:58;8.50;;;1.75;;
15637;SDS011;26604;53.596;10.042;2023-12-20T04:32:25;6.57;;;1.40;;
15637;SDS011;26604;53.596;10.042;2023-12-20T04:34:51;18.92;;;2.15;;
15637;SDS011;26604;53.596;10.042;2023-12-20T04:37:18;15.43;;;1.85;;
15637;SDS011;26604;53.596;10.042;2023-12-20T04:39:46;8.52;;;1.52;;
15637;SDS011;26604;53.596;10.042;2023-12-20T04:42:13;10.82;;;2.00;;
15637;SDS011;26604;53.596;10.042;2023-12-20T04:44:40;8.38;;;2.03;;
15637;SDS011;26604;53.596;10.042;2023-12-20T04:47:08;17.73;;;1.88;;
15637;SDS011;26604;53.596;10.042;2023-12-20T04:49:35;10.32;;;1.60;;
15637;SDS011;26604;53.596;10.042;2023-12-20T04:52:02;5.47;;;1.85;;
15637;SDS011;26604;53.596;10.042;2023-12-20T04:54:31;7.93;;;1.70;;
15637;SDS011;26604;53.596;10.042;2023-12-20T04:56:59;9.73;;;1.90;;
15637;SDS011;26604;53.596;10.042;2023-12-20T04:59:25;9.02;;;1.80;;
15637;SDS011;26604;53.596;10.042;2023-12-20T05:01:52;7.85;;;1.35;;
15637;SDS011;26604;53.596;10.042;2023-12-20T05:04:19;10.65;;;1.35;;
15637;SDS011;26604;53.596;10.042;2023-12-20T05:06:46;14.88;;;1.80;;
15637;SDS011;26604;53.596;10.042;2023-12-20T05:09:14;11.55;;;2.15;;
15637;SDS011;26604;53.596;10.042;2023-12-20T05:11:41;15.60;;;2.05;;
15637;SDS011;26604;53.596;10.042;2023-12-20T05:14:09;15.23;;;1.92;;
15637;SDS011;26604;53.596;10.042;2023-12-20T05:16:36;9.05;;;1.50;;
15637;SDS011;26604;53.596;10.042;2023-12-20T05:19:03;11.45;;;1.90;;
15637;SDS011;26604;53.596;10.042;2023-12-20T05:21:31;7.75;;;1.63;;
15637;SDS011;26604;53.596;10.042;2023-12-20T05:23:58;10.40;;;2.13;;
15637;SDS011;26604;53.596;10.042;2023-12-20T05:26:26;11.05;;;2.22;;
15637;SDS011;26604;53.596;10.042;2023-12-20T05:28:54;10.02;;;2.05;;
15637;SDS011;26604;53.596;10.042;2023-12-20T05:31:22;11.38;;;2.08;;
15637;SDS011;26604;53.596;10.042;2023-12-20T05:33:49;12.27;;;2.08;;
15637;SDS011;26604;53.596;10.042;2023-12-20T05:36:16;12.35;;;3.17;;
15637;SDS011;26604;53.596;10.042;2023-12-20T05:38:43;14.60;;;2.03;;
15637;SDS011;26604;53.596;10.042;2023-12-20T05:41:10;9.13;;;2.20;;
15637;SDS011;26604;53.596;10.042;2023-12-20T05:43:36;10.18;;;1.80;;
15637;SDS011;26604;53.596;10.042;2023-12-20T05:46:03;18.65;;;2.20;;
15637;SDS011;26604;53.596;10.042;2023-12-20T05:48:31;11.30;;;2.65;;
15637;SDS011;26604;53.596;10.042;2023-12-20T05:50:58;8.57;;;1.70;;
15637;SDS011;26604;53.596;10.042;2023-12-20T05:53:25;11.93;;;2.42;;
15637;SDS011;26604;53.596;10.042;2023-12-20T05:55:52;12.98;;;2.13;;
15637;SDS011;26604;53.596;10.042;2023-12-20T05:58:19;14.32;;;2.40;;
15637;SDS011;26604;53.596;10.042;2023-12-20T06:00:45;10.85;;;1.55;;
15637;SDS011;26604;53.596;10.042;2023-12-20T06:03:13;9.68;;;1.63;;
15637;SDS011;26604;53.596;10.042;2023-12-20T06:05:42;14.13;;;1.98;;
15637;SDS011;26604;53.596;10.042;2023-12-20T06:08:08;11.95;;;1.95;;
15637;SDS011;26604;53.596;10.042;2023-12-20T06:10:36;10.43;;;2.08;;
15637;SDS011;26604;53.596;10.042;2023-12-20T06:13:03;11.48;;;2.08;;
15637;SDS011;26604;53.596;10.042;2023-12-20T06:15:31;12.95;;;1.92;;
15637;SDS011;26604;53.596;10.042;2023-12-20T06:17:58;17.33;;;2.40;;
15637;SDS011;26604;53.596;10.042;2023-12-20T06:20:26;16.77;;;2.45;;
15637;SDS011;26604;53.596;10.042;2023-12-20T06:22:54;11.90;;;2.33;;
15637;SDS011;26604;53.596;10.042;2023-12-20T06:25:21;12.30;;;2.22;;
15637;SDS011;26604;53.596;10.042;2023-12-20T06:27:47;9.43;;;1.70;;
15637;SDS011;26604;53.596;10.042;2023-12-20T06:30:15;23.58;;;2.42;;
15637;SDS011;26604;53.596;10.042;2023-12-20T06:32:42;10.40;;;2.08;;
15637;SDS011;26604;53.596;10.042;2023-12-20T06:35:12;11.90;;;2.20;;
15637;SDS011;26604;53.596;10.042;2023-12-20T06:37:38;14.82;;;2.00;;
15637;SDS011;26604;53.596;10.042;2023-12-20T06:40:09;14.45;;;1.95;;
15637;SDS011;26604;53.596;10.042;2023-12-20T06:42:36;13.43;;;2.58;;
15637;SDS011;26604;53.596;10.042;2023-12-20T06:45:03;19.42;;;2.35;;
15637;SDS011;26604;53.596;10.042;2023-12-20T06:47:31;11.43;;;2.53;;
15637;SDS011;26604;53.596;10.042;2023-12-20T06:49:58;11.35;;;1.67;;
15637;SDS011;26604;53.596;10.042;2023-12-20T06:52:24;11.90;;;2.03;;
15637;SDS011;26604;53.596;10.042;2023-12-20T06:54:51;13.60;;;2.83;;
15637;SDS011;26604;53.596;10.042;2023-12-20T06:57:19;3.95;;;1.25;;
15637;SDS011;26604;53.596;10.042;2023-12-20T06:59:46;8.80;;;1.90;;
15637;SDS011;26604;53.596;10.042;2023-12-20T07:02:13;12.88;;;2.45;;
15637;SDS011;26604;53.596;10.042;2023-12-20T07:04:40;11.30;;;1.90;;
15637;SDS011;26604;53.596;10.042;2023-12-20T07:07:07;18.85;;;2.75;;
15637;SDS011;26604;53.596;10.042;2023-12-20T07:09:34;11.38;;;1.95;;
15637;SDS011;26604;53.596;10.042;2023-12-20T07:12:01;16.60;;;2.08;;
15637;SDS011;26604;53.596;10.042;2023-12-20T07:14:29;8.02;;;2.05;;
15637;SDS011;26604;53.596;10.042;2023-12-20T07:16:56;11.63;;;2.33;;
15637;SDS011;26604;53.596;10.042;2023-12-20T07:19:23;11.27;;;2.15;;
15637;SDS011;26604;53.596;10.042;2023-12-20T07:21:50;13.93;;;2.40;;
15637;SDS011;26604;53.596;10.042;2023-12-20T07:24:16;9.43;;;2.03;;
15637;SDS011;26604;53.596;10.042;2023-12-20T07:26:43;11.32;;;1.98;;
15637;SDS011;26604;53.596;10.042;2023-12-20T07:29:10;14.32;;;2.70;;
15637;SDS011;26604;53.596;10.042;2023-12-20T07:31:38;12.18;;;2.08;;
15637;SDS011;26604;53.596;10.042;2023-12-20T07:34:05;16.08;;;1.98;;
15637;SDS011;26604;53.596;10.042;2023-12-20T07:36:32;13.52;;;2.90;;
15637;SDS011;26604;53.596;10.042;2023-12-20T07:38:59;14.18;;;2.13;;
15637;SDS011;26604;53.596;10.042;2023-12-20T07:41:25;12.98;;;2.17;;
15637;SDS011;26604;53.596;10.042;2023-12-20T07:43:52;9.32;;;2.05;;
15637;SDS011;26604;53.596;10.042;2023-12-20T07:46:20;12.70;;;2.08;;
15637;SDS011;26604;53.596;10.042;2023-12-20T07:48:50;15.90;;;2.55;;
15637;SDS011;26604;53.596;10.042;2023-12-20T07:51:16;13.52;;;2.50;;
15637;SDS011;26604;53.596;10.042;2023-12-20T07:53:44;15.20;;;3.22;;
15637;SDS011;26604;53.596;10.042;2023-12-20T07:56:14;15.02;;;2.83;;
15637;SDS011;26604;53.596;10.042;2023-12-20T07:58:42;9.57;;;2.10;;
15637;SDS011;26604;53.596;10.042;2023-12-20T08:01:09;16.63;;;3.17;;
15637;SDS011;26604;53.596;10.042;2023-12-20T08:03:36;13.25;;;2.33;;
15637;SDS011;26604;53.596;10.042;2023-12-20T08:06:04;15.90;;;2.50;;
15637;SDS011;26604;53.596;10.042;2023-12-20T08:08:31;11.85;;;2.38;;
15637;SDS011;26604;53.596;10.042;2023-12-20T08:10:58;13.57;;;2.72;;
15637;SDS011;26604;53.596;10.042;2023-12-20T08:13:25;21.48;;;2.63;;
15637;SDS011;26604;53.596;10.042;2023-12-20T08:15:52;15.93;;;2.53;;
15637;SDS011;26604;53.596;10.042;2023-12-20T08:18:21;16.77;;;3.78;;
15637;SDS011;26604;53.596;10.042;2023-12-20T08:20:48;12.65;;;2.25;;
15637;SDS011;26604;53.596;10.042;2023-12-20T08:23:19;19.00;;;2.78;;
15637;SDS011;26604;53.596;10.042;2023-12-20T08:25:46;14.95;;;2.40;;
15637;SDS011;26604;53.596;10.042;2023-12-20T08:28:14;17.40;;;3.20;;
15637;SDS011;26604;53.596;10.042;2023-12-20T08:30:40;16.08;;;3.20;;
15637;SDS011;26604;53.596;10.042;2023-12-20T08:33:08;14.73;;;2.78;;
15637;SDS011;26604;53.596;10.042;2023-12-20T08:35:37;10.50;;;2.80;;
15637;SDS011;26604;53.596;10.042;2023-12-20T08:38:04;15.00;;;2.70;;
15637;SDS011;26604;53.596;10.042;2023-12-20T08:40:33;14.27;;;2.38;;
15637;SDS011;26604;53.596;10.042;2023-12-20T08:43:00;10.90;;;2.15;;
15637;SDS011;26604;53.596;10.042;2023-12-20T08:45:27;16.48;;;2.65;;
15637;SDS011;26604;53.596;10.042;2023-12-20T08:47:53;12.90;;;2.08;;
15637;SDS011;26604;53.596;10.042;2023-12-20T08:50:20;16.23;;;2.45;;
15637;SDS011;26604;53.596;10.042;2023-12-20T08:52:47;17.25;;;2.35;;
15637;SDS011;26604;53.596;10.042;2023-12-20T08:55:14;8.52;;;2.00;;
15637;SDS011;26604;53.596;10.042;2023-12-20T08:57:44;15.45;;;2.78;;
15637;SDS011;26604;53.596;10.042;2023-12-20T09:00:11;11.20;;;2.70;;
15637;SDS011;26604;53.596;10.042;2023-12-20T09:02:39;17.45;;;2.78;;
15637;SDS011;26604;53.596;10.042;2023-12-20T09:05:06;9.10;;;2.63;;
15637;SDS011;26604;53.596;10.042;2023-12-20T09:07:33;16.42;;;2.60;;
15637;SDS011;26604;53.596;10.042;2023-12-20T09:10:00;13.95;;;3.20;;
15637;SDS011;26604;53.596;10.042;2023-12-20T09:12:27;10.15;;;1.92;;
15637;SDS011;26604;53.596;10.042;2023-12-20T09:14:55;14.02;;;1.98;;
15637;SDS011;26604;53.596;10.042;2023-12-20T09:17:22;12.70;;;1.48;;
15637;SDS011;26604;53.596;10.042;2023-12-20T09:19:49;12.57;;;2.25;;
15637;SDS011;26604;53.596;10.042;2023-12-20T09:22:17;14.27;;;1.63;;
15637;SDS011;26604;53.596;10.042;2023-12-20T09:24:44;9.43;;;2.17;;
15637;SDS011;26604;53.596;10.042;2023-12-20T09:27:11;5.95;;;1.40;;
15637;SDS011;26604;53.596;10.042;2023-12-20T09:29:38;5.10;;;1.23;;
15637;SDS011;26604;53.596;10.042;2023-12-20T09:32:06;6.60;;;1.48;;
15637;SDS011;26604;53.596;10.042;2023-12-20T09:34:33;15.82;;;1.58;;
15637;SDS011;26604;53.596;10.042;2023-12-20T09:37:00;5.22;;;1.10;;
15637;SDS011;26604;53.596;10.042;2023-12-20T09:39:28;5.78;;;1.00;;
15637;SDS011;26604;53.596;10.042;2023-12-20T09:42:00;6.25;;;0.90;;
15637;SDS011;26604;53.596;10.042;2023-12-20T09:44:28;3.25;;;0.80;;
15637;SDS011;26604;53.596;10.042;2023-12-20T09:46:55;2.80;;;0.68;;
15637;SDS011;26604;53.596;10.042;2023-12-20T09:49:24;3.20;;;0.50;;
15637;SDS011;26604;53.596;10.042;2023-12-20T09:51:53;3.20;;;0.40;;
15637;SDS011;26604;53.596;10.042;2023-12-20T09:54:21;2.08;;;0.50;;
15637;SDS011;26604;53.596;10.042;2023-12-20T09:56:49;0.65;;;0.30;;
15637;SDS011;26604;53.596;10.042;2023-12-20T09:59:16;3.40;;;0.52;;
15637;SDS011;26604;53.596;10.042;2023-12-20T10:01:43;2.20;;;0.63;;
15637;SDS011;26604;53.596;10.042;2023-12-20T10:04:11;1.05;;;0.32;;
15637;SDS011;26604;53.596;10.042;2023-12-20T10:06:40;2.83;;;0.68;;
15637;SDS011;26604;53.596;10.042;2023-12-20T10:09:08;3.10;;;0.70;;
15637;SDS011;26604;53.596;10.042;2023-12-20T10:11:35;6.40;;;0.88;;
15637;SDS011;26604;53.596;10.042;2023-12-20T10:14:03;0.70;;;0.50;;
15637;SDS011;26604;53.596;10.042;2023-12-20T10:16:31;4.68;;;1.08;;
15637;SDS011;26604;53.596;10.042;2023-12-20T10:18:59;2.05;;;0.60;;
15637;SDS011;26604;53.596;10.042;2023-12-20T10:21:27;4.22;;;0.60;;
15637;SDS011;26604;53.596;10.042;2023-12-20T10:23:55;3.33;;;0.50;;
15637;SDS011;26604;53.596;10.042;2023-12-20T10:26:23;2.88;;;0.50;;
15637;SDS011;26604;53.596;10.042;2023-12-20T10:28:52;2.85;;;0.63;;
15637;SDS011;26604;53.596;10.042;2023-12-20T10:31:25;2.33;;;0.55;;
15637;SDS011;26604;53.596;10.042;2023-12-20T10:33:53;1.75;;;0.55;;
15637;SDS011;26604;53.596;10.042;2023-12-20T10:36:22;1.27;;;0.50;;
15637;SDS011;26604;53.596;10.042;2023-12-20T10:38:51;2.55;;;0.65;;
15637;SDS011;26604;53.596;10.042;2023-12-20T10:41:21;1.88;;;0.70;;
15637;SDS011;26604;53.596;10.042;2023-12-20T10:43:51;3.67;;;0.60;;
15637;SDS011;26604;53.596;10.042;2023-12-20T10:46:18;4.75;;;0.60;;
15637;SDS011;26604;53.596;10.042;2023-12-20T10:48:46;0.82;;;0.38;;
15637;SDS011;26604;53.596;10.042;2023-12-20T10:51:15;3.25;;;0.70;;
15637;SDS011;26604;53.596;10.042;2023-12-20T10:53:45;3.90;;;0.82;;
15637;SDS011;26604;53.596;10.042;2023-12-20T10:56:15;4.07;;;2.15;;
15637;SDS011;26604;53.596;10.042;2023-12-20T10:58:45;3.63;;;1.13;;
15637;SDS011;26604;53.596;10.042;2023-12-20T11:01:13;8.02;;;1.17;;
15637;SDS011;26604;53.596;10.042;2023-12-20T11:03:43;4.13;;;1.02;;
15637;SDS011;26604;53.596;10.042;2023-12-20T11:06:15;6.45;;;0.77;;
15637;SDS011;26604;53.596;10.042;2023-12-20T11:08:54;5.00;;;1.40;;
15637;SDS011;26604;53.596;10.042;2023-12-20T11:11:34;8.68;;;1.00;;
15637;SDS011;26604;53.596;10.042;2023-12-20T11:14:07;7.78;;;1.25;;
15637;SDS011;26604;53.596;10.042;2023-12-20T11:16:39;4.72;;;0.85;;
15637;SDS011;26604;53.596;10.042;2023-12-20T11:19:07;8.38;;;0.98;;
15637;SDS011;26604;53.596;10.042;2023-12-20T11:21:34;7.30;;;1.10;;
15637;SDS011;26604;53.596;10.042;2023-12-20T11:24:01;5.20;;;1.02;;
15637;SDS011;26604;53.596;10.042;2023-12-20T11:26:29;3.95;;;0.70;;
15637;SDS011;26604;53.596;10.042;2023-12-20T11:31:59;2.15;;;0.70;;
15637;SDS011;26604;53.596;10.042;2023-12-20T11:34:27;5.50;;;0.77;;
15637;SDS011;26604;53.596;10.042;2023-12-20T11:36:58;9.88;;;1.25;;
15637;SDS011;26604;53.596;10.042;2023-12-20T11:39:26;2.95;;;0.50;;
15637;SDS011;26604;53.596;10.042;2023-12-20T11:41:54;6.15;;;1.35;;
15637;SDS011;26604;53.596;10.042;2023-12-20T11:44:22;3.67;;;0.75;;
15637;SDS011;26604;53.596;10.042;2023-12-20T11:46:52;2.60;;;0.60;;
15637;SDS011;26604;53.596;10.042;2023-12-20T11:49:22;3.17;;;0.80;;
15637;SDS011;26604;53.596;10.042;2023-12-20T11:51:50;4.85;;;1.00;;
15637;SDS011;26604;53.596;10.042;2023-12-20T11:54:17;8.02;;;1.52;;
15637;SDS011;26604;53.596;10.042;2023-12-20T11:56:44;3.58;;;0.95;;
15637;SDS011;26604;53.596;10.042;2023-12-20T11:59:11;9.38;;;1.67;;
15637;SDS011;26604;53.596;10.042;2023-12-20T12:01:38;9.13;;;1.33;;
15637;SDS011;26604;53.596;10.042;2023-12-20T12:04:07;12.57;;;1.77;;
15637;SDS011;26604;53.596;10.042;2023-12-20T12:06:34;13.85;;;1.80;;
15637;SDS011;26604;53.596;10.042;2023-12-20T12:09:00;8.90;;;1.30;;
15637;SDS011;26604;53.596;10.042;2023-12-20T12:11:29;8.70;;;1.50;;
15637;SDS011;26604;53.596;10.042;2023-12-20T12:13:56;16.58;;;1.77;;
15637;SDS011;26604;53.596;10.042;2023-12-20T12:16:22;15.45;;;1.75;;
15637;SDS011;26604;53.596;10.042;2023-12-20T12:18:55;8.05;;;2.00;;
15637;SDS011;26604;53.596;10.042;2023-12-20T12:21:23;17.20;;;4.15;;
15637;SDS011;26604;53.596;10.042;2023-12-20T12:23:50;14.63;;;1.95;;
15637;SDS011;26604;53.596;10.042;2023-12-20T12:26:18;11.65;;;2.08;;
15637;SDS011;26604;53.596;10.042;2023-12-20T12:28:45;10.20;;;2.13;;
15637;SDS011;26604;53.596;10.042;2023-12-20T12:31:15;9.43;;;2.70;;
15637;SDS011;26604;53.596;10.042;2023-12-20T12:33:42;12.02;;;2.88;;
15637;SDS011;26604;53.596;10.042;2023-12-20T12:36:10;15.20;;;1.98;;
15637;SDS011;26604;53.596;10.042;2023-12-20T12:38:38;13.50;;;1.77;;
15637;SDS011;26604;53.596;10.042;2023-12-20T12:41:05;20.60;;;2.70;;
15637;SDS011;26604;53.596;10.042;2023-12-20T12:43:32;18.33;;;2.58;;
15637;SDS011;26604;53.596;10.042;2023-12-20T12:45:59;14.30;;;2.50;;
15637;SDS011;26604;53.596;10.042;2023-12-20T12:48:26;18.48;;;2.25;;
15637;SDS011;26604;53.596;10.042;2023-12-20T12:50:54;14.80;;;2.25;;
15637;SDS011;26604;53.596;10.042;2023-12-20T12:53:24;22.60;;;2.50;;
15637;SDS011;26604;53.596;10.042;2023-12-20T12:55:53;13.93;;;2.10;;
15637;SDS011;26604;53.596;10.042;2023-12-20T12:58:20;17.95;;;2.40;;
15637;SDS011;26604;53.596;10.042;2023-12-20T13:00:47;16.83;;;2.50;;
15637;SDS011;26604;53.596;10.042;2023-12-20T13:03:14;11.38;;;2.70;;
15637;SDS011;26604;53.596;10.042;2023-12-20T13:05:41;14.20;;;2.42;;
15637;SDS011;26604;53.596;10.042;2023-12-20T13:08:08;16.55;;;2.20;;
15637;SDS011;26604;53.596;10.042;2023-12-20T13:10:37;15.65;;;2.15;;
15637;SDS011;26604;53.596;10.042;2023-12-20T13:13:05;14.57;;;1.90;;
15637;SDS011;26604;53.596;10.042;2023-12-20T13:15:32;13.20;;;2.63;;
15637;SDS011;26604;53.596;10.042;2023-12-20T13:17:59;23.20;;;2.50;;
15637;SDS011;26604;53.596;10.042;2023-12-20T13:20:26;14.57;;;2.42;;
15637;SDS011;26604;53.596;10.042;2023-12-20T13:22:53;14.57;;;2.25;;
15637;SDS011;26604;53.596;10.042;2023-12-20T13:25:19;13.02;;;2.72;;
15637;SDS011;26604;53.596;10.042;2023-12-20T13:27:46;11.95;;;2.42;;
15637;SDS011;26604;53.596;10.042;2023-12-20T13:30:15;12.07;;;2.75;;
15637;SDS011;26604;53.596;10.042;2023-12-20T13:32:43;9.68;;;2.28;;
15637;SDS011;26604;53.596;10.042;2023-12-20T13:35:10;16.38;;;2.08;;
15637;SDS011;26604;53.596;10.042;2023-12-20T13:37:37;13.25;;;2.65;;
15637;SDS011;26604;53.596;10.042;2023-12-20T13:40:05;17.70;;;2.90;;
15637;SDS011;26604;53.596;10.042;2023-12-20T13:42:33;18.75;;;3.20;;
15637;SDS011;26604;53.596;10.042;2023-12-20T13:45:00;18.10;;;2.72;;
15637;SDS011;26604;53.596;10.042;2023-12-20T13:47:33;16.58;;;3.15;;
15637;SDS011;26604;53.596;10.042;2023-12-20T13:50:02;18.98;;;2.95;;
15637;SDS011;26604;53.596;10.042;2023-12-20T13:52:29;13.50;;;2.78;;
15637;SDS011;26604;53.596;10.042;2023-12-20T13:54:56;15.05;;;2.65;;
15637;SDS011;26604;53.596;10.042;2023-12-20T13:57:23;14.95;;;2.90;;
15637;SDS011;26604;53.596;10.042;2023-12-20T13:59:50;18.30;;;3.35;;
15637;SDS011;26604;53.596;10.042;2023-12-20T14:02:16;17.60;;;2.95;;
15637;SDS011;26604;53.596;10.042;2023-12-20T14:04:45;20.23;;;3.35;;
15637;SDS011;26604;53.596;10.042;2023-12-20T14:07:11;17.52;;;3.35;;
15637;SDS011;26604;53.596;10.042;2023-12-20T14:09:38;17.88;;;3.33;;
15637;SDS011;26604;53.596;10.042;2023-12-20T14:12:10;19.70;;;3.28;;
15637;SDS011;26604;53.596;10.042;2023-12-20T14:14:37;23.10;;;4.05;;
15637;SDS011;26604;53.596;10.042;2023-12-20T14:17:04;18.45;;;3.22;;
15637;SDS011;26604;53.596;10.042;2023-12-20T14:19:31;21.83;;;3.72;;
15637;SDS011;26604;53.596;10.042;2023-12-20T14:21:59;24.55;;;4.03;;
15637;SDS011;26604;53.596;10.042;2023-12-20T14:24:27;15.07;;;2.85;;
15637;SDS011;26604;53.596;10.042;2023-12-20T14:26:54;15.25;;;3.15;;
15637;SDS011;26604;53.596;10.042;2023-12-20T14:29:20;8.10;;;2.80;;
15637;SDS011;26604;53.596;10.042;2023-12-20T14:31:47;15.55;;;3.17;;